Time;durP1;ratioP1;P1;durP2;ratioP2;P2;SDS_P1;SDS_P2;PMS_P1;PMS_P2;Temp;Humidity;BMP_temperature;BMP_pressure;BME280_temperature;BME280_humidity;BME280_pressure;Samples;Min_cycle;Max_cycle;Signal;HPM_P1;HPM_P2
2022/04/18 00:01:10;;;;;;;11.43;8.80;;;7.20;90.10;;;;;;4997924;28;20142;-64
2022/04/18 00:03:36;;;;;;;12.43;9.40;;;7.10;90.60;;;;;;5017710;28;20099;-64
2022/04/18 00:06:02;;;;;;;13.50;8.63;;;7.00;91.20;;;;;;5016687;28;20041;-64
2022/04/18 00:08:28;;;;;;;10.90;8.40;;;7.10;91.20;;;;;;4997759;28;20077;-64
2022/04/18 00:10:53;;;;;;;13.60;10.00;;;7.10;91.60;;;;;;4997393;28;20132;-64
2022/04/18 00:13:19;;;;;;;10.57;9.50;;;7.10;91.50;;;;;;4998940;28;20485;-65
2022/04/18 00:15:45;;;;;;;10.90;9.05;;;7.10;91.80;;;;;;5015239;28;20058;-64
2022/04/18 00:18:10;;;;;;;13.15;9.38;;;7.00;91.40;;;;;;5015699;28;20049;-64
2022/04/18 00:20:36;;;;;;;12.02;10.15;;;7.00;91.80;;;;;;5000280;28;20056;-65
2022/04/18 00:23:02;;;;;;;12.63;9.40;;;7.00;92.00;;;;;;5016040;28;20161;-64
2022/04/18 00:25:27;;;;;;;9.73;8.52;;;7.00;91.70;;;;;;5016365;28;20045;-64
2022/04/18 00:27:53;;;;;;;12.05;9.98;;;7.00;91.80;;;;;;5022440;28;20546;-64
2022/04/18 00:30:18;;;;;;;13.98;9.63;;;7.00;92.00;;;;;;5017517;28;20045;-65
2022/04/18 00:32:44;;;;;;;13.15;10.45;;;7.00;92.20;;;;;;5016253;28;20118;-64
2022/04/18 00:35:10;;;;;;;13.43;10.32;;;7.00;92.20;;;;;;5017365;28;20041;-64
2022/04/18 00:37:39;;;;;;;15.93;10.45;;;7.00;92.20;;;;;;5023911;28;20131;-65
2022/04/18 00:40:06;;;;;;;15.63;10.55;;;6.90;92.50;;;;;;5037063;28;20045;-64
2022/04/18 00:42:32;;;;;;;12.18;9.45;;;6.90;92.60;;;;;;5036200;28;20136;-65
2022/04/18 00:44:58;;;;;;;14.00;10.77;;;6.80;93.40;;;;;;5019024;28;20054;-65
2022/04/18 00:47:23;;;;;;;14.02;10.32;;;6.80;93.40;;;;;;4998561;28;20046;-65
2022/04/18 00:49:49;;;;;;;14.63;10.45;;;6.80;93.30;;;;;;5014150;28;20049;-65
2022/04/18 00:52:15;;;;;;;11.13;9.75;;;6.80;93.20;;;;;;5019381;28;20053;-65
2022/04/18 00:54:41;;;;;;;14.43;10.60;;;6.80;93.50;;;;;;5036731;28;20063;-65
2022/04/18 00:57:09;;;;;;;10.35;8.80;;;6.80;93.40;;;;;;5036348;28;20198;-65
2022/04/18 00:59:37;;;;;;;14.77;10.73;;;6.80;93.90;;;;;;5036101;28;20041;-65
2022/04/18 01:02:04;;;;;;;14.25;9.75;;;6.90;94.80;;;;;;5036509;28;20568;-65
2022/04/18 01:04:30;;;;;;;11.13;8.68;;;6.90;95.10;;;;;;5036746;28;20045;-65
2022/04/18 01:06:58;;;;;;;11.13;8.68;;;6.90;96.70;;;;;;5037566;28;20049;-65
2022/04/18 01:09:23;;;;;;;14.82;9.57;;;6.90;96.50;;;;;;5019398;28;20068;-65
2022/04/18 01:11:49;;;;;;;15.30;8.70;;;6.90;96.90;;;;;;5018449;28;20562;-65
2022/04/18 01:14:15;;;;;;;13.88;9.82;;;6.90;97.70;;;;;;5019469;28;20130;-65
2022/04/18 01:16:42;;;;;;;15.25;9.07;;;7.00;98.10;;;;;;5037114;28;20037;-65
2022/04/18 01:19:09;;;;;;;13.63;9.60;;;7.00;97.70;;;;;;5036604;28;20126;-65
2022/04/18 01:21:35;;;;;;;14.02;10.30;;;6.90;97.30;;;;;;5037056;28;20114;-65
2022/04/18 01:24:00;;;;;;;12.35;10.48;;;6.90;96.80;;;;;;5037244;28;20635;-65
2022/04/18 01:29:10;;;;;;;11.65;10.43;;;6.70;96.00;;;;;;4994737;28;20092;-65
2022/04/18 01:31:38;;;;;;;17.77;11.57;;;6.60;96.20;;;;;;5016346;28;20132;-65
2022/04/18 01:34:05;;;;;;;15.90;11.23;;;6.50;96.70;;;;;;5020043;28;20056;-65
2022/04/18 01:36:32;;;;;;;14.88;11.48;;;6.40;97.20;;;;;;4989657;28;20412;-65
2022/04/18 01:38:58;;;;;;;15.50;11.02;;;6.40;98.10;;;;;;4996836;28;20050;-65
2022/04/18 01:41:24;;;;;;;16.75;11.32;;;6.30;98.40;;;;;;5002305;28;20049;-65
2022/04/18 01:43:50;;;;;;;14.07;11.02;;;6.20;98.80;;;;;;5028764;28;20057;-65
2022/04/18 01:46:17;;;;;;;13.15;10.07;;;6.20;99.10;;;;;;5035006;28;20045;-65
2022/04/18 01:48:43;;;;;;;16.85;10.85;;;6.20;99.90;;;;;;5036508;28;20056;-64
2022/04/18 01:51:09;;;;;;;16.90;11.77;;;6.20;99.90;;;;;;5036752;28;20041;-64
2022/04/18 01:53:34;;;;;;;12.82;11.13;;;6.10;99.20;;;;;;5035902;28;20045;-64
2022/04/18 01:56:00;;;;;;;16.25;9.80;;;6.10;99.20;;;;;;5035831;28;20540;-64
2022/04/18 01:58:26;;;;;;;16.15;9.93;;;6.10;99.20;;;;;;5036264;28;20079;-64
2022/04/18 02:00:51;;;;;;;13.73;10.57;;;6.10;99.50;;;;;;5027343;28;20052;-65
2022/04/18 02:03:17;;;;;;;15.57;11.90;;;6.10;99.30;;;;;;4996776;28;20765;-65
2022/04/18 02:05:44;;;;;;;15.77;11.48;;;6.00;99.50;;;;;;4979434;28;20516;-66
2022/04/18 02:08:10;;;;;;;12.30;9.85;;;5.90;99.80;;;;;;4978688;28;20071;-66
2022/04/18 02:10:36;;;;;;;14.73;10.70;;;5.90;99.90;;;;;;4996660;28;20049;-66
2022/04/18 02:13:02;;;;;;;14.25;10.27;;;5.90;99.90;;;;;;4996746;28;20820;-66
2022/04/18 02:15:28;;;;;;;15.30;11.57;;;5.90;99.90;;;;;;4996675;28;20844;-66
2022/04/18 02:17:53;;;;;;;16.65;10.52;;;5.80;99.90;;;;;;5033278;28;20082;-66
2022/04/18 02:20:19;;;;;;;12.68;10.32;;;5.80;99.90;;;;;;5036041;28;20077;-66
2022/04/18 02:22:45;;;;;;;13.10;9.57;;;5.80;99.90;;;;;;5017083;28;20049;-64
2022/04/18 02:25:10;;;;;;;12.63;8.30;;;5.80;99.90;;;;;;5034892;28;20075;-66
2022/04/18 02:27:36;;;;;;;11.55;9.15;;;5.90;99.90;;;;;;5019003;28;20495;-64
2022/04/18 02:30:03;;;;;;;12.52;9.57;;;5.90;99.90;;;;;;5015837;28;20049;-64
2022/04/18 02:32:47;;;;;;;15.93;10.40;;;6.00;99.90;;;;;;5015893;28;20128;-64
2022/04/18 02:35:13;;;;;;;;;;;6.00;99.90;;;;;;5015557;28;20132;-64
2022/04/18 02:37:39;;;;;;;17.70;10.43;;;6.00;99.90;;;;;;4998219;28;20245;-64
2022/04/18 02:40:05;;;;;;;16.75;11.48;;;6.00;99.90;;;;;;4998601;28;20083;-64
2022/04/18 02:42:31;;;;;;;18.75;12.18;;;5.90;99.90;;;;;;5015747;28;20049;-64
2022/04/18 02:44:57;;;;;;;13.15;9.43;;;5.80;99.90;;;;;;5016082;28;20049;-64
2022/04/18 02:47:22;;;;;;;17.63;12.40;;;5.80;99.90;;;;;;5016280;28;20136;-64
2022/04/18 02:49:50;;;;;;;15.15;11.13;;;5.70;99.90;;;;;;5015972;28;20519;-63
2022/04/18 02:52:16;;;;;;;15.25;10.95;;;5.60;99.90;;;;;;5036182;28;20110;-64
2022/04/18 02:54:43;;;;;;;14.07;9.88;;;5.50;99.90;;;;;;5018916;28;20118;-64
2022/04/18 02:57:11;;;;;;;13.57;9.85;;;5.60;99.90;;;;;;5035971;28;20160;-64
2022/04/18 02:59:37;;;;;;;14.10;9.80;;;5.70;99.90;;;;;;5030735;28;20104;-64
2022/04/18 03:02:02;;;;;;;13.57;11.57;;;5.70;99.90;;;;;;5019556;28;20041;-65
2022/04/18 03:04:28;;;;;;;14.52;9.50;;;5.80;99.90;;;;;;5019533;28;20111;-64
2022/04/18 03:06:54;;;;;;;13.48;9.98;;;4.80;99.90;;;;;;5019329;28;20076;-64
2022/04/18 03:09:20;;;;;;;12.85;9.45;;;5.90;99.90;;;;;;5001663;28;20116;-64
2022/04/18 03:11:45;;;;;;;14.98;9.90;;;5.80;99.90;;;;;;5026364;28;20041;-64
2022/04/18 03:14:11;;;;;;;13.25;8.82;;;5.80;99.90;;;;;;5039391;28;20511;-65
2022/04/18 03:16:36;;;;;;;10.13;8.88;;;5.80;99.90;;;;;;5036259;28;20063;-64
2022/04/18 03:19:02;;;;;;;12.93;9.40;;;5.80;99.90;;;;;;4999736;28;20042;-64
2022/04/18 03:21:28;;;;;;;13.60;10.75;;;5.80;99.90;;;;;;5000097;28;20901;-64
2022/04/18 03:23:54;;;;;;;15.77;12.27;;;5.60;99.90;;;;;;4999750;28;20050;-64
2022/04/18 03:26:19;;;;;;;13.93;8.90;;;5.50;99.90;;;;;;4982308;28;20092;-65
2022/04/18 03:28:45;;;;;;;16.38;12.13;;;5.50;99.90;;;;;;4982401;28;20133;-64
2022/04/18 03:31:11;;;;;;;14.07;11.07;;;5.40;99.90;;;;;;4999358;28;20121;-64
2022/04/18 03:33:36;;;;;;;15.65;12.75;;;5.30;99.90;;;;;;4982207;28;20062;-64
2022/04/18 03:41:31;;;;;;;17.70;11.40;;;5.30;99.90;;;;;;5018222;28;20123;-65
2022/04/18 03:43:56;;;;;;;17.20;11.65;;;5.40;99.90;;;;;;5018400;28;20501;-64
2022/04/18 03:46:22;;;;;;;13.25;11.77;;;5.40;99.90;;;;;;5018255;28;20825;-64
2022/04/18 03:48:47;;;;;;;14.48;12.35;;;5.40;99.90;;;;;;5018638;28;20409;-64
2022/04/18 03:51:13;;;;;;;15.30;11.57;;;5.30;99.90;;;;;;5012333;28;20049;-64
2022/04/18 03:53:38;;;;;;;15.20;12.27;;;5.10;99.90;;;;;;5037885;28;20455;-64
2022/04/18 03:56:04;;;;;;;13.50;10.52;;;4.90;99.90;;;;;;5038648;28;20049;-64
2022/04/18 03:58:30;;;;;;;16.83;11.13;;;4.80;99.90;;;;;;5038650;28;20048;-64
2022/04/18 04:00:55;;;;;;;16.63;12.27;;;4.80;99.90;;;;;;5038609;28;20048;-64
2022/04/18 04:03:21;;;;;;;16.38;10.10;;;4.90;99.90;;;;;;5038621;28;20545;-64
2022/04/18 04:05:46;;;;;;;16.85;10.30;;;4.90;99.90;;;;;;5038818;28;20067;-64
2022/04/18 04:08:12;;;;;;;12.20;8.68;;;5.00;99.90;;;;;;5010124;28;20054;-64
2022/04/18 04:10:37;;;;;;;12.05;8.48;;;5.00;99.90;;;;;;4997228;28;20506;-64
2022/04/18 04:13:03;;;;;;;16.83;10.43;;;5.00;99.90;;;;;;4998249;28;20486;-64
2022/04/18 04:15:29;;;;;;;11.95;9.32;;;5.10;99.90;;;;;;4976565;28;20434;-64
2022/04/18 04:17:54;;;;;;;11.82;9.45;;;5.00;99.90;;;;;;4978276;28;20050;-64
2022/04/18 04:20:22;;;;;;;16.30;9.68;;;5.00;99.90;;;;;;4978028;28;20053;-64
2022/04/18 04:22:49;;;;;;;13.05;10.50;;;5.10;99.90;;;;;;4978207;28;20054;-64
2022/04/18 04:25:20;;;;;;;9.82;8.18;;;5.10;99.90;;;;;;4977260;28;20299;-64
2022/04/18 04:27:46;;;;;;;16.73;9.40;;;5.10;99.90;;;;;;4977525;28;20976;-64
2022/04/18 04:30:12;;;;;;;12.60;8.77;;;5.10;99.90;;;;;;4978622;28;20054;-64
2022/04/18 04:32:37;;;;;;;12.48;9.75;;;5.10;99.90;;;;;;4978128;28;20038;-64
2022/04/18 04:35:03;;;;;;;9.77;8.40;;;5.20;99.90;;;;;;4982137;28;20053;-64
2022/04/18 04:37:29;;;;;;;11.25;8.98;;;5.20;99.90;;;;;;4997996;28;20131;-64
2022/04/18 04:39:54;;;;;;;17.50;11.23;;;5.20;99.90;;;;;;4997985;28;20387;-64
2022/04/18 04:42:20;;;;;;;15.52;11.23;;;5.10;99.90;;;;;;4997539;28;20746;-64
2022/04/18 04:44:45;;;;;;;10.13;9.05;;;5.10;99.90;;;;;;4998043;28;20053;-64
2022/04/18 04:47:11;;;;;;;11.90;8.63;;;5.20;99.90;;;;;;4998311;28;20046;-64
2022/04/18 04:49:37;;;;;;;17.98;10.05;;;5.20;99.90;;;;;;4997132;28;20897;-63
2022/04/18 04:52:04;;;;;;;17.10;9.80;;;5.20;99.90;;;;;;5015875;28;20160;-64
2022/04/18 04:54:29;;;;;;;13.40;11.38;;;5.30;99.90;;;;;;5017251;28;20050;-64
2022/04/18 04:56:55;;;;;;;12.98;10.52;;;5.30;99.90;;;;;;5016362;28;20088;-64
2022/04/18 04:59:20;;;;;;;15.27;11.88;;;5.40;99.90;;;;;;5017234;28;20056;-64
2022/04/18 05:01:46;;;;;;;12.00;9.82;;;5.50;99.90;;;;;;5017175;28;20572;-64
2022/04/18 05:04:12;;;;;;;17.23;11.40;;;5.50;99.90;;;;;;5016527;28;20059;-65
2022/04/18 05:06:37;;;;;;;16.88;10.68;;;5.60;99.90;;;;;;5015884;28;20049;-65
2022/04/18 05:09:03;;;;;;;17.13;10.48;;;5.60;99.90;;;;;;4991957;28;20084;-65
2022/04/18 05:11:28;;;;;;;14.77;9.77;;;5.60;99.90;;;;;;4985587;28;20840;-65
2022/04/18 05:13:54;;;;;;;16.58;11.02;;;5.60;99.90;;;;;;5021378;28;20056;-65
2022/04/18 05:16:20;;;;;;;13.23;10.52;;;5.60;99.90;;;;;;5036888;28;20356;-65
2022/04/18 05:18:46;;;;;;;15.93;10.55;;;5.60;99.90;;;;;;5018264;28;20044;-65
2022/04/18 05:21:12;;;;;;;13.82;9.32;;;5.60;99.90;;;;;;5036776;28;20713;-65
2022/04/18 05:23:37;;;;;;;15.95;11.65;;;5.60;99.90;;;;;;5019066;28;20057;-65
2022/04/18 05:26:03;;;;;;;14.32;10.60;;;5.50;99.90;;;;;;5037204;28;20416;-65
2022/04/18 05:28:29;;;;;;;15.10;11.00;;;5.60;99.90;;;;;;5037233;28;20091;-65
2022/04/18 05:30:54;;;;;;;16.83;12.27;;;5.60;99.90;;;;;;5019007;28;20052;-65
2022/04/18 05:33:23;;;;;;;15.90;11.13;;;5.70;99.90;;;;;;5037005;28;20763;-65
2022/04/18 05:35:49;;;;;;;14.73;11.18;;;5.80;99.90;;;;;;4993775;28;20883;-65
2022/04/18 05:38:15;;;;;;;15.35;12.00;;;5.90;99.90;;;;;;4996213;28;20052;-65
2022/04/18 05:40:41;;;;;;;17.38;11.32;;;6.00;99.90;;;;;;4978827;28;20077;-65
2022/04/18 05:43:08;;;;;;;15.55;10.95;;;6.10;99.90;;;;;;4996749;28;20065;-65
2022/04/18 05:45:38;;;;;;;14.95;10.38;;;6.20;99.90;;;;;;4977985;28;20314;-65
2022/04/18 05:48:04;;;;;;;13.63;10.57;;;6.20;99.90;;;;;;4996642;28;20042;-65
2022/04/18 05:50:29;;;;;;;18.70;11.10;;;6.30;99.90;;;;;;5008513;28;20048;-65
2022/04/18 05:52:55;;;;;;;13.85;9.65;;;6.00;99.90;;;;;;5036152;28;20389;-65
2022/04/18 05:55:21;;;;;;;11.40;9.43;;;6.50;99.90;;;;;;5036188;28;20451;-65
2022/04/18 05:57:48;;;;;;;16.73;11.20;;;6.60;99.90;;;;;;5018204;28;20737;-65
2022/04/18 06:00:15;;;;;;;13.18;9.13;;;6.60;99.90;;;;;;5035965;28;20632;-65
2022/04/18 06:02:40;;;;;;;16.23;10.13;;;6.70;99.90;;;;;;5018619;28;20134;-65
2022/04/18 06:05:06;;;;;;;15.90;9.27;;;6.80;99.90;;;;;;5018266;28;20779;-65
2022/04/18 06:07:32;;;;;;;14.10;9.73;;;6.90;99.90;;;;;;5035121;28;20041;-65
2022/04/18 06:09:58;;;;;;;16.27;10.48;;;7.00;99.90;;;;;;4979248;28;20045;-65
2022/04/18 06:12:24;;;;;;;14.73;10.95;;;7.10;99.90;;;;;;5003840;28;20102;-65
2022/04/18 06:14:49;;;;;;;16.90;10.23;;;7.20;99.90;;;;;;5035203;28;20845;-66
2022/04/18 06:17:15;;;;;;;16.08;11.27;;;7.30;99.90;;;;;;5035710;28;20144;-65
2022/04/18 06:19:40;;;;;;;14.40;10.15;;;7.40;99.90;;;;;;5035625;28;20045;-65
2022/04/18 06:22:06;;;;;;;13.15;9.60;;;7.50;99.90;;;;;;5034738;28;20067;-65
2022/04/18 06:24:31;;;;;;;16.58;10.52;;;7.60;99.90;;;;;;5035438;28;20045;-65
2022/04/18 06:26:57;;;;;;;19.90;12.35;;;7.70;99.90;;;;;;5017309;28;20122;-65
2022/04/18 06:29:22;;;;;;;17.92;11.48;;;7.90;99.90;;;;;;5035360;28;20131;-65
2022/04/18 06:31:49;;;;;;;11.25;9.38;;;8.00;99.90;;;;;;5035772;28;20045;-65
2022/04/18 06:34:16;;;;;;;15.75;10.90;;;8.10;99.90;;;;;;5023730;28;20048;-65
2022/04/18 06:36:42;;;;;;;12.77;10.18;;;8.20;99.90;;;;;;5003061;28;20073;-65
2022/04/18 06:39:07;;;;;;;13.23;10.18;;;8.40;99.90;;;;;;5003004;28;20124;-65
2022/04/18 06:41:33;;;;;;;11.93;9.50;;;8.50;99.90;;;;;;5002363;28;20053;-65
2022/04/18 06:43:58;;;;;;;14.82;9.65;;;8.70;99.90;;;;;;4985487;28;20057;-65
2022/04/18 06:46:24;;;;;;;11.07;8.43;;;8.90;99.80;;;;;;4985500;28;20096;-65
2022/04/18 06:48:49;;;;;;;16.17;10.10;;;9.00;99.30;;;;;;4984593;28;20093;-65
2022/04/18 06:51:15;;;;;;;11.98;9.88;;;9.20;98.50;;;;;;5015434;28;20049;-65
2022/04/18 06:53:40;;;;;;;12.77;9.15;;;9.40;98.30;;;;;;5020679;28;20477;-65
2022/04/18 06:58:50;;;;;;;11.02;9.30;;;9.80;98.70;;;;;;5020687;28;20152;-66
2022/04/18 07:01:16;;;;;;;14.90;8.68;;;10.00;99.40;;;;;;5020802;28;20068;-66
2022/04/18 07:03:42;;;;;;;12.20;9.23;;;10.20;99.90;;;;;;5019664;28;20058;-65
2022/04/18 07:06:07;;;;;;;13.95;9.15;;;10.60;99.90;;;;;;5020987;28;20045;-67
2022/04/18 07:08:33;;;;;;;13.82;9.25;;;11.50;99.60;;;;;;5021681;28;20485;-67
2022/04/18 07:10:59;;;;;;;12.05;9.52;;;13.20;98.00;;;;;;5004531;28;20600;-67
2022/04/18 07:13:25;;;;;;;12.10;9.30;;;14.80;95.40;;;;;;5025489;28;20056;-66
2022/04/18 07:15:52;;;;;;;11.02;8.60;;;16.10;93.50;;;;;;5022114;28;20050;-66
2022/04/18 07:18:18;;;;;;;14.13;10.05;;;17.30;92.00;;;;;;5021673;28;20086;-66
2022/04/18 07:20:43;;;;;;;11.10;9.25;;;18.00;89.80;;;;;;5002305;28;20049;-66
2022/04/18 07:23:09;;;;;;;10.52;8.95;;;18.60;84.80;;;;;;5001892;28;20049;-66
2022/04/18 07:25:34;;;;;;;12.15;8.52;;;19.30;82.80;;;;;;5019305;28;20767;-66
2022/04/18 07:28:00;;;;;;;9.73;8.40;;;19.70;79.40;;;;;;5019324;28;20049;-67
2022/04/18 07:30:30;;;;;;;10.23;8.55;;;20.20;77.70;;;;;;5018098;28;20046;-66
2022/04/18 07:32:55;;;;;;;10.65;8.38;;;20.70;75.10;;;;;;5000577;28;20124;-67
2022/04/18 07:35:21;;;;;;;9.95;8.35;;;20.70;71.00;;;;;;5018140;28;20083;-66
2022/04/18 07:40:31;;;;;;;10.15;9.15;;;21.30;69.00;;;;;;5017659;28;20048;-66
2022/04/18 07:42:56;;;;;;;12.73;9.52;;;21.40;67.40;;;;;;5018243;28;20657;-67
2022/04/18 07:45:22;;;;;;;10.20;7.90;;;21.50;64.90;;;;;;4998238;28;20041;-66
2022/04/18 07:47:50;;;;;;;9.02;8.00;;;21.50;63.20;;;;;;5017029;28;20066;-66
2022/04/18 07:50:15;;;;;;;11.80;8.25;;;21.60;62.30;;;;;;5018765;28;20227;-66
2022/04/18 07:52:41;;;;;;;8.65;7.53;;;21.60;62.10;;;;;;4998561;28;20456;-66
2022/04/18 07:55:07;;;;;;;9.95;8.15;;;21.90;61.10;;;;;;5017150;28;20049;-67
2022/04/18 07:57:32;;;;;;;9.65;8.57;;;22.00;59.60;;;;;;4998633;28;20811;-67
2022/04/18 07:59:58;;;;;;;10.93;8.45;;;22.20;59.30;;;;;;5016182;28;20130;-67
2022/04/18 08:02:24;;;;;;;9.15;7.95;;;22.30;59.00;;;;;;4999214;28;20045;-68
2022/04/18 08:04:50;;;;;;;9.45;7.80;;;22.40;58.20;;;;;;5017198;28;20135;-67
2022/04/18 08:07:15;;;;;;;10.77;7.55;;;22.60;57.50;;;;;;5016416;28;20050;-67
2022/04/18 08:09:41;;;;;;;10.95;7.93;;;22.70;57.00;;;;;;4998751;28;20500;-66
2022/04/18 08:12:11;;;;;;;10.00;7.88;;;22.90;57.00;;;;;;5001703;28;20049;-67
2022/04/18 08:14:37;;;;;;;10.15;8.00;;;23.40;56.70;;;;;;5016424;28;20085;-67
2022/04/18 08:17:03;;;;;;;8.93;7.85;;;23.80;56.50;;;;;;5016820;28;20132;-67
2022/04/18 08:19:29;;;;;;;14.15;7.32;;;24.20;55.90;;;;;;4998934;28;20130;-67
2022/04/18 08:21:55;;;;;;;10.25;7.78;;;24.20;54.80;;;;;;5016262;28;20139;-67
2022/04/18 08:24:21;;;;;;;12.73;7.30;;;23.80;53.90;;;;;;4999958;28;20435;-66
2022/04/18 08:26:47;;;;;;;10.98;8.52;;;23.60;54.40;;;;;;5017054;28;20083;-67
2022/04/18 08:29:13;;;;;;;8.15;6.75;;;23.20;53.90;;;;;;4999242;28;20059;-67
2022/04/18 08:31:39;;;;;;;8.45;7.30;;;23.40;54.00;;;;;;5017581;28;20053;-67
2022/04/18 08:34:04;;;;;;;8.35;7.47;;;23.60;54.00;;;;;;5016956;28;20045;-67
2022/04/18 08:36:30;;;;;;;8.95;7.50;;;24.00;53.80;;;;;;5001151;28;20046;-67
2022/04/18 08:38:56;;;;;;;10.40;7.55;;;24.00;53.30;;;;;;4980406;28;20055;-66
2022/04/18 08:41:31;;;;;;;9.63;7.32;;;24.30;52.80;;;;;;4997346;28;20097;-67
2022/04/18 08:43:57;;;;;;;11.43;8.23;;;24.30;51.90;;;;;;4998002;28;20414;-68
2022/04/18 08:46:22;;;;;;;10.05;7.72;;;24.00;52.00;;;;;;4980898;28;20064;-67
2022/04/18 08:54:18;;;;;;;9.55;7.90;;;24.40;52.00;;;;;;5020005;28;20056;-67
2022/04/18 08:56:44;;;;;;;8.93;6.97;;;24.60;51.50;;;;;;5015933;28;20453;-67
2022/04/18 08:59:10;;;;;;;9.73;8.00;;;24.80;51.10;;;;;;5014750;28;20566;-67
2022/04/18 09:01:45;;;;;;;8.98;7.68;;;24.60;51.00;;;;;;5016404;28;20155;-67
2022/04/18 09:04:10;;;;;;;8.18;7.32;;;24.90;51.30;;;;;;4998030;28;20069;-67
2022/04/18 09:06:38;;;;;;;9.48;7.40;;;24.10;51.10;;;;;;4999428;28;20061;-67
2022/04/18 09:09:04;;;;;;;9.68;7.32;;;24.00;51.10;;;;;;4998155;28;20713;-67
2022/04/18 09:11:33;;;;;;;8.63;6.90;;;23.40;51.00;;;;;;5021995;28;20040;-67
2022/04/18 09:14:08;;;;;;;8.57;7.22;;;23.60;51.30;;;;;;5036750;28;20168;-67
2022/04/18 09:16:35;;;;;;;9.30;7.47;;;23.40;51.10;;;;;;5036562;28;20083;-67
2022/04/18 09:19:06;;;;;;;11.63;7.82;;;23.60;51.10;;;;;;5018404;28;20129;-67
2022/04/18 09:21:32;;;;;;;8.98;7.75;;;23.80;50.20;;;;;;5036310;28;20072;-67
2022/04/18 09:23:58;;;;;;;9.98;7.68;;;24.00;50.70;;;;;;5036059;28;20049;-67
2022/04/18 09:26:24;;;;;;;8.32;7.18;;;23.90;50.20;;;;;;5036686;28;20481;-68
2022/04/18 09:28:50;;;;;;;7.47;6.13;;;24.30;50.20;;;;;;5019080;28;20087;-67
2022/04/18 09:31:19;;;;;;;9.90;7.35;;;24.70;49.70;;;;;;5036893;28;20136;-67
2022/04/18 09:33:56;;;;;;;10.95;7.63;;;24.50;49.10;;;;;;5036577;28;20216;-67
2022/04/18 09:36:23;;;;;;;9.02;7.90;;;24.70;48.90;;;;;;5000511;28;20053;-68
2022/04/18 09:38:56;;;;;;;8.50;7.00;;;24.60;49.20;;;;;;5016288;28;20052;-67
2022/04/18 09:41:27;;;;;;;7.05;6.35;;;24.90;49.00;;;;;;5017253;28;20049;-67
2022/04/18 09:43:54;;;;;;;7.00;6.30;;;25.20;49.00;;;;;;5015841;28;20115;-67
2022/04/18 09:46:21;;;;;;;8.18;6.72;;;25.50;49.00;;;;;;5016477;28;20041;-67
2022/04/18 09:48:48;;;;;;;9.10;6.60;;;25.70;48.60;;;;;;5016577;28;20171;-67
2022/04/18 09:51:29;;;;;;;6.25;5.65;;;25.70;48.30;;;;;;5016196;28;20045;-67
2022/04/18 09:53:59;;;;;;;6.63;5.93;;;25.30;46.70;;;;;;5016434;28;20045;-67
2022/04/18 09:56:29;;;;;;;9.50;6.05;;;25.30;47.60;;;;;;4998571;28;20100;-66
2022/04/18 09:58:58;;;;;;;8.10;6.53;;;25.40;47.60;;;;;;5015575;28;20583;-67
2022/04/18 10:01:24;;;;;;;7.53;5.82;;;25.20;47.40;;;;;;4998775;28;20132;-66
2022/04/18 10:03:52;;;;;;;5.63;5.10;;;25.30;47.10;;;;;;4998441;28;20165;-66
2022/04/18 10:06:19;;;;;;;8.15;5.95;;;25.30;46.50;;;;;;5015968;28;20394;-66
2022/04/18 10:08:44;;;;;;;5.93;5.35;;;25.20;46.80;;;;;;4997473;28;20119;-66
2022/04/18 10:11:11;;;;;;;8.57;5.68;;;25.30;47.20;;;;;;5018772;28;20827;-66
2022/04/18 10:13:37;;;;;;;8.55;5.47;;;25.60;47.50;;;;;;5035711;28;20056;-66
2022/04/18 10:16:05;;;;;;;5.60;5.10;;;26.00;47.10;;;;;;5035878;28;20167;-66
2022/04/18 10:18:37;;;;;;;6.50;5.80;;;25.80;46.60;;;;;;5018050;28;20077;-66
2022/04/18 10:21:20;;;;;;;6.70;6.05;;;25.70;46.30;;;;;;5034140;28;20081;-66
2022/04/18 10:23:55;;;;;;;7.18;5.80;;;25.90;46.40;;;;;;5033891;28;20045;-66
2022/04/18 10:26:47;;;;;;;7.47;5.35;;;25.80;46.10;;;;;;5015132;28;20095;-66
2022/04/18 10:29:18;;;;;;;5.32;4.82;;;25.80;45.00;;;;;;5009065;28;20135;-66
2022/04/18 10:31:45;;;;;;;6.18;5.45;;;25.90;46.10;;;;;;5015999;28;20144;-66
2022/04/18 10:34:13;;;;;;;8.50;4.97;;;26.00;45.50;;;;;;5015300;28;20504;-66
2022/04/18 10:36:46;;;;;;;7.05;5.82;;;25.90;45.30;;;;;;5015234;28;20822;-66
2022/04/18 10:39:12;;;;;;;8.93;5.70;;;25.70;44.00;;;;;;5015360;28;20049;-66
2022/04/18 10:41:45;;;;;;;5.50;4.78;;;25.60;45.40;;;;;;4996831;28;20096;-66
2022/04/18 10:44:15;;;;;;;6.47;5.80;;;25.70;45.50;;;;;;4996443;28;20061;-66
2022/04/18 10:47:00;;;;;;;5.13;4.65;;;25.50;45.30;;;;;;5013682;28;20053;-66
2022/04/18 10:49:30;;;;;;;8.80;4.57;;;25.30;44.80;;;;;;5013912;28;20218;-65
2022/04/18 10:51:57;;;;;;;6.10;4.60;;;24.90;44.80;;;;;;5013378;28;20365;-66
2022/04/18 10:54:29;;;;;;;5.60;5.10;;;24.20;44.40;;;;;;5032834;28;20071;-66
2022/04/18 10:57:11;;;;;;;5.88;5.28;;;23.60;44.20;;;;;;5022475;28;20080;-66
2022/04/18 10:59:41;;;;;;;6.10;4.70;;;22.70;44.70;;;;;;5009476;28;20518;-66
2022/04/18 11:02:07;;;;;;;5.28;4.78;;;22.00;45.00;;;;;;5010907;28;20056;-66
2022/04/18 11:04:48;;;;;;;5.15;4.63;;;21.70;45.00;;;;;;4992540;28;20164;-65
2022/04/18 11:07:13;;;;;;;7.85;4.95;;;21.30;45.30;;;;;;5010932;28;20049;-65
2022/04/18 11:09:42;;;;;;;7.68;4.97;;;21.00;45.30;;;;;;4989872;28;20056;-66
2022/04/18 11:12:20;;;;;;;8.05;4.75;;;20.80;45.20;;;;;;4996824;28;20083;-66
2022/04/18 11:14:55;;;;;;;5.22;4.38;;;20.70;44.80;;;;;;5009681;28;20127;-65
2022/04/18 11:17:37;;;;;;;3.97;3.53;;;20.60;45.40;;;;;;5010841;28;20048;-66
2022/04/18 11:20:28;;;;;;;9.32;5.60;;;20.60;44.80;;;;;;4996045;28;20049;-66
2022/04/18 11:23:18;;;;;;;5.53;4.18;;;20.40;44.90;;;;;;5013904;28;20587;-66
2022/04/18 11:26:01;;;;;;;5.65;5.03;;;20.20;44.90;;;;;;5010688;28;20975;-66
2022/04/18 11:28:41;;;;;;;6.60;4.65;;;20.20;45.30;;;;;;5014204;28;20052;-65
2022/04/18 11:31:09;;;;;;;5.03;4.43;;;20.10;44.80;;;;;;5013830;28;20080;-66
2022/04/18 11:33:43;;;;;;;7.28;4.57;;;20.20;44.80;;;;;;5014484;28;20041;-66
2022/04/18 11:36:10;;;;;;;5.57;5.05;;;20.40;44.90;;;;;;5013295;28;20045;-65
2022/04/18 11:38:36;;;;;;;5.90;4.80;;;20.50;44.70;;;;;;4996196;28;20179;-66
2022/04/18 11:41:12;;;;;;;6.32;4.90;;;20.50;44.60;;;;;;4996377;28;20642;-65
2022/04/18 11:43:38;;;;;;;5.82;4.90;;;20.50;44.80;;;;;;5013957;28;20124;-65
2022/04/18 11:46:07;;;;;;;5.20;4.00;;;20.30;45.10;;;;;;5014864;28;20412;-65
2022/04/18 11:48:34;;;;;;;4.68;4.28;;;20.20;44.80;;;;;;5014564;28;20383;-65
2022/04/18 11:51:00;;;;;;;7.68;4.88;;;20.30;44.50;;;;;;5024060;28;20694;-65
2022/04/18 11:53:31;;;;;;;5.65;4.85;;;20.20;44.60;;;;;;5035955;28;20037;-65
2022/04/18 11:55:57;;;;;;;7.32;4.60;;;20.30;45.30;;;;;;5035682;28;20324;-65
2022/04/18 11:58:22;;;;;;;6.65;5.25;;;20.50;45.20;;;;;;5035179;28;20044;-65
2022/04/18 12:09:11;;;;;;;6.35;4.70;;;20.70;45.00;;;;;;5012039;28;20060;-65
2022/04/18 12:11:37;;;;;;;8.07;5.00;;;20.70;45.00;;;;;;4990358;28;20049;-65
2022/04/18 12:14:03;;;;;;;6.93;4.93;;;20.80;45.10;;;;;;5035384;28;20092;-65
2022/04/18 12:16:33;;;;;;;6.93;4.13;;;20.80;44.50;;;;;;5035576;28;20052;-65
2022/04/18 12:18:59;;;;;;;5.82;4.50;;;20.80;44.50;;;;;;5016307;28;20052;-65
2022/04/18 12:21:25;;;;;;;6.50;5.10;;;20.70;44.50;;;;;;5016642;28;20056;-65
2022/04/18 12:23:59;;;;;;;5.13;4.57;;;20.60;44.50;;;;;;5015787;28;21024;-65
2022/04/18 12:26:27;;;;;;;4.97;4.20;;;20.70;44.60;;;;;;4996967;28;20694;-65
2022/04/18 12:29:05;;;;;;;5.57;4.47;;;20.80;44.50;;;;;;5013759;28;20045;-64
2022/04/18 12:31:31;;;;;;;5.90;3.85;;;20.60;44.20;;;;;;5012676;28;20048;-65
2022/04/18 12:33:58;;;;;;;4.95;4.18;;;20.50;44.50;;;;;;5014800;28;20087;-65
2022/04/18 12:36:33;;;;;;;5.50;4.50;;;20.70;44.40;;;;;;5015090;28;20045;-65
2022/04/18 12:39:00;;;;;;;4.57;3.55;;;20.80;44.50;;;;;;5014825;28;20678;-65
2022/04/18 12:41:37;;;;;;;5.50;4.15;;;20.90;44.50;;;;;;5014705;28;20052;-65
2022/04/18 12:44:11;;;;;;;6.38;4.28;;;21.00;44.60;;;;;;5014842;28;20125;-65
2022/04/18 12:46:36;;;;;;;4.30;3.80;;;21.00;44.30;;;;;;5013489;28;20053;-65
2022/04/18 12:49:08;;;;;;;5.43;3.85;;;21.00;44.50;;;;;;4995873;28;20045;-65
2022/04/18 12:51:39;;;;;;;5.03;4.53;;;21.20;44.00;;;;;;5028702;28;20098;-65
2022/04/18 12:54:06;;;;;;;5.38;4.50;;;21.40;44.30;;;;;;5034522;28;20060;-65
2022/04/18 12:56:33;;;;;;;5.38;4.00;;;21.30;44.20;;;;;;5016614;28;20048;-65
2022/04/18 12:59:01;;;;;;;4.63;3.97;;;21.50;44.20;;;;;;5034359;28;20131;-65
2022/04/18 13:01:34;;;;;;;5.00;3.45;;;21.40;44.30;;;;;;5034233;28;20054;-65
2022/04/18 13:04:02;;;;;;;4.53;3.53;;;21.20;44.10;;;;;;5034929;28;20049;-65
2022/04/18 13:06:30;;;;;;;4.88;3.83;;;21.10;43.50;;;;;;5035621;28;20127;-65
2022/04/18 13:09:07;;;;;;;4.00;3.38;;;21.10;44.00;;;;;;5012322;28;20050;-65
2022/04/18 13:11:44;;;;;;;3.80;3.40;;;21.20;44.00;;;;;;5007081;28;20686;-65